createdAt,value
2023-05-18T00:00:19.532Z,5.90
2023-05-18T00:02:48.473Z,6.05
2023-05-18T00:05:18.128Z,4.05
2023-05-18T00:07:45.596Z,5.40
2023-05-18T00:10:12.841Z,4.53
2023-05-18T00:12:39.665Z,5.20
2023-05-18T00:15:06.874Z,3.40
2023-05-18T00:17:33.638Z,4.50
2023-05-18T00:20:01.036Z,5.97
2023-05-18T00:22:27.820Z,4.93
2023-05-18T00:24:54.608Z,4.20
2023-05-18T00:27:21.458Z,4.28
2023-05-18T00:29:48.147Z,4.03
2023-05-18T00:32:14.890Z,4.55
2023-05-18T00:34:41.575Z,5.15
2023-05-18T00:37:08.327Z,5.45
2023-05-18T00:39:35.125Z,4.05
2023-05-18T00:42:02.878Z,4.20
2023-05-18T00:44:29.625Z,5.43
2023-05-18T00:46:56.616Z,4.53
2023-05-18T00:49:23.396Z,4.03
2023-05-18T00:51:50.496Z,5.43
2023-05-18T00:54:17.587Z,4.05
2023-05-18T00:56:46.363Z,5.75
2023-05-18T00:59:13.502Z,3.72
2023-05-18T01:01:46.924Z,4.78
2023-05-18T01:04:16.542Z,5.10
2023-05-18T01:06:43.943Z,4.80
2023-05-18T01:09:12.137Z,4.95
2023-05-18T01:12:00.791Z,6.25
2023-05-18T01:14:46.498Z,6.18
2023-05-18T01:17:33.726Z,3.67
2023-05-18T01:20:23.318Z,4.53
2023-05-18T01:23:14.857Z,3.30
2023-05-18T01:26:06.808Z,4.63
2023-05-18T01:28:33.900Z,4.97
2023-05-18T01:31:01.204Z,3.53
2023-05-18T01:33:27.998Z,5.70
2023-05-18T01:35:54.927Z,3.75
2023-05-18T01:38:24.116Z,5.60
2023-05-18T01:40:57.604Z,3.63
2023-05-18T01:43:30.056Z,3.22
2023-05-18T01:45:59.036Z,3.25
2023-05-18T01:48:26.453Z,5.97
2023-05-18T01:50:56.478Z,3.97
2023-05-18T01:53:35.613Z,5.95
2023-05-18T01:56:03.091Z,5.78
2023-05-18T01:58:30.207Z,4.53
2023-05-18T02:00:57.071Z,4.15
2023-05-18T02:03:24.212Z,4.53
2023-05-18T02:05:50.970Z,3.97
2023-05-18T02:08:17.825Z,4.88
2023-05-18T02:10:45.265Z,4.22
2023-05-18T02:13:12.027Z,4.45
2023-05-18T02:15:38.794Z,4.60
2023-05-18T02:18:05.866Z,4.95
2023-05-18T02:20:33.661Z,5.25
2023-05-18T02:23:00.629Z,3.78
2023-05-18T02:25:27.555Z,4.38
2023-05-18T02:27:54.455Z,4.25
2023-05-18T02:30:21.287Z,5.00
2023-05-18T02:32:50.513Z,4.60
2023-05-18T02:35:20.749Z,6.32
2023-05-18T02:37:50.066Z,6.03
2023-05-18T02:40:17.937Z,4.05
2023-05-18T02:42:44.698Z,4.30
2023-05-18T02:45:11.518Z,4.70
2023-05-18T02:47:46.645Z,5.85
2023-05-18T02:50:13.478Z,3.50
2023-05-18T02:52:42.237Z,5.50
2023-05-18T02:55:09.708Z,4.18
2023-05-18T02:58:03.628Z,5.97
2023-05-18T03:00:53.086Z,6.13
2023-05-18T03:03:20.071Z,4.80
2023-05-18T03:05:47.705Z,6.63
2023-05-18T03:08:18.367Z,6.22
2023-05-18T03:10:45.954Z,4.70
2023-05-18T03:13:12.922Z,4.63
2023-05-18T03:15:40.672Z,5.28
2023-05-18T03:18:07.585Z,4.85
2023-05-18T03:20:35.641Z,3.85
2023-05-18T03:23:02.356Z,6.72
2023-05-18T03:25:32.862Z,5.38
2023-05-18T03:28:01.357Z,5.55
2023-05-18T03:30:28.337Z,7.03
2023-05-18T03:32:55.157Z,3.80
2023-05-18T03:35:22.250Z,6.60
2023-05-18T03:37:48.974Z,4.88
2023-05-18T03:40:16.378Z,6.13
2023-05-18T03:42:44.664Z,4.63
2023-05-18T03:45:12.384Z,5.13
2023-05-18T03:47:39.802Z,6.07
2023-05-18T03:50:07.534Z,6.38
2023-05-18T03:52:35.088Z,5.75
2023-05-18T03:55:02.217Z,5.88
2023-05-18T03:57:31.900Z,4.72
2023-05-18T04:00:00.866Z,6.57
2023-05-18T04:02:27.930Z,5.10
2023-05-18T04:04:54.741Z,5.28
2023-05-18T04:07:27.311Z,5.68
2023-05-18T04:09:56.179Z,5.10
2023-05-18T04:12:23.563Z,5.07
2023-05-18T04:14:50.345Z,5.70
2023-05-18T04:17:18.564Z,4.45
2023-05-18T04:19:46.265Z,4.50
2023-05-18T04:22:13.238Z,6.07
2023-05-18T04:24:41.408Z,4.28
2023-05-18T04:27:09.812Z,5.00
2023-05-18T04:29:39.287Z,4.13
2023-05-18T04:32:10.947Z,6.55
2023-05-18T04:34:38.416Z,5.35
2023-05-18T04:37:05.975Z,4.05
2023-05-18T04:39:34.723Z,6.55
2023-05-18T04:42:07.007Z,7.47
2023-05-18T04:44:34.280Z,3.90
2023-05-18T04:47:01.692Z,4.47
2023-05-18T04:49:28.864Z,4.78
2023-05-18T04:51:56.540Z,4.95
2023-05-18T04:54:24.205Z,5.13
2023-05-18T04:56:51.894Z,4.60
2023-05-18T04:59:19.369Z,4.85
2023-05-18T05:01:46.916Z,4.63
2023-05-18T05:04:14.202Z,4.85
2023-05-18T05:06:41.484Z,5.57
2023-05-18T05:09:08.308Z,4.25
2023-05-18T05:11:35.128Z,6.00
2023-05-18T05:14:03.086Z,5.50
2023-05-18T05:16:30.324Z,4.20
2023-05-18T05:18:57.316Z,5.72
2023-05-18T05:21:24.261Z,8.07
2023-05-18T05:23:51.960Z,7.50
2023-05-18T05:26:19.783Z,6.70
2023-05-18T05:28:46.572Z,6.38
2023-05-18T05:31:13.935Z,5.22
2023-05-18T05:33:41.060Z,5.85
2023-05-18T05:36:08.742Z,3.88
2023-05-18T05:38:35.630Z,3.88
2023-05-18T05:41:02.789Z,4.22
2023-05-18T05:43:29.637Z,4.90
2023-05-18T05:45:56.362Z,6.68
2023-05-18T05:48:23.161Z,6.75
2023-05-18T05:50:49.994Z,7.65
2023-05-18T05:53:19.849Z,5.15
2023-05-18T05:55:48.393Z,5.68
2023-05-18T05:58:17.889Z,4.75
2023-05-18T06:00:51.534Z,5.22
2023-05-18T06:03:18.305Z,6.13
2023-05-18T06:05:46.631Z,7.10
2023-05-18T06:08:15.838Z,6.90
2023-05-18T06:10:43.173Z,6.05
2023-05-18T06:13:10.052Z,9.77
2023-05-18T06:15:45.696Z,5.35
2023-05-18T06:18:13.564Z,8.23
2023-05-18T06:20:40.777Z,7.35
2023-05-18T06:23:07.583Z,5.13
2023-05-18T06:25:53.332Z,4.93
2023-05-18T06:28:38.624Z,5.70
2023-05-18T06:31:18.986Z,7.40
2023-05-18T06:34:18.176Z,7.25
2023-05-18T06:36:45.015Z,4.75
2023-05-18T06:39:11.859Z,8.10
2023-05-18T06:41:38.953Z,5.70
2023-05-18T06:44:06.441Z,6.07
2023-05-18T06:46:36.737Z,6.95
2023-05-18T06:49:11.304Z,5.47
2023-05-18T06:51:38.057Z,6.63
2023-05-18T06:54:06.048Z,8.45
2023-05-18T06:56:32.927Z,6.90
2023-05-18T06:59:00.615Z,5.72
2023-05-18T07:01:29.227Z,6.38
2023-05-18T07:03:59.414Z,7.75
2023-05-18T07:06:26.170Z,7.43
2023-05-18T07:08:53.067Z,6.28
2023-05-18T07:11:19.900Z,7.40
2023-05-18T07:13:46.587Z,8.48
2023-05-18T07:16:13.417Z,6.28
2023-05-18T07:18:42.257Z,6.78
2023-05-18T07:21:09.145Z,6.45
2023-05-18T07:23:36.183Z,6.28
2023-05-18T07:26:03.044Z,6.90
2023-05-18T07:28:29.868Z,5.32
2023-05-18T07:30:56.603Z,5.63
2023-05-18T07:33:23.486Z,5.70
2023-05-18T07:35:50.289Z,6.82
2023-05-18T07:38:17.024Z,7.63
2023-05-18T07:40:43.819Z,5.72
2023-05-18T07:43:10.567Z,7.03
2023-05-18T07:45:37.384Z,7.25
2023-05-18T07:48:04.250Z,8.07
2023-05-18T07:50:31.028Z,5.78
2023-05-18T07:52:57.705Z,5.88
2023-05-18T07:55:24.453Z,7.80
2023-05-18T07:57:52.003Z,6.10
2023-05-18T08:00:19.305Z,5.82
2023-05-18T08:02:46.329Z,7.50
2023-05-18T08:05:13.993Z,7.43
2023-05-18T08:07:40.749Z,6.68
2023-05-18T08:10:07.918Z,7.90
2023-05-18T08:12:34.698Z,8.68
2023-05-18T08:15:01.518Z,9.70
2023-05-18T08:17:28.336Z,6.53
2023-05-18T08:19:57.742Z,6.55
2023-05-18T08:22:24.579Z,7.72
2023-05-18T08:24:52.161Z,8.15
2023-05-18T08:27:20.031Z,6.50
2023-05-18T08:29:46.892Z,6.90
2023-05-18T08:32:14.194Z,7.07
2023-05-18T08:34:41.656Z,9.07
2023-05-18T08:37:08.511Z,5.70
2023-05-18T08:39:36.890Z,7.88
2023-05-18T08:42:13.977Z,6.35
2023-05-18T08:44:45.221Z,6.40
2023-05-18T08:47:13.879Z,5.65
2023-05-18T08:49:42.369Z,5.57
2023-05-18T08:52:09.649Z,5.85
2023-05-18T08:54:37.144Z,5.43
2023-05-18T08:57:09.198Z,8.82
2023-05-18T08:59:41.248Z,7.03
2023-05-18T09:02:08.428Z,4.95
2023-05-18T09:04:35.573Z,6.50
2023-05-18T09:07:04.536Z,5.53
2023-05-18T09:09:31.330Z,6.03
2023-05-18T09:11:58.890Z,8.02
2023-05-18T09:14:26.897Z,6.80
2023-05-18T09:16:53.890Z,8.57
2023-05-18T09:19:20.905Z,7.95
2023-05-18T09:21:47.950Z,9.70
2023-05-18T09:24:15.399Z,5.95
2023-05-18T09:26:42.174Z,10.25
2023-05-18T09:29:22.141Z,7.13
2023-05-18T09:31:49.217Z,6.57
2023-05-18T09:34:16.448Z,8.48
2023-05-18T09:36:49.459Z,6.82
2023-05-18T09:39:16.316Z,7.60
2023-05-18T09:41:43.059Z,5.97
2023-05-18T09:44:09.894Z,6.65
2023-05-18T09:46:37.683Z,8.07
2023-05-18T09:49:05.546Z,8.82
2023-05-18T09:51:38.850Z,6.70
2023-05-18T09:54:08.595Z,7.63
2023-05-18T09:56:36.736Z,5.60
2023-05-18T09:59:14.313Z,6.70
2023-05-18T10:02:05.588Z,7.28
2023-05-18T10:04:42.997Z,9.02
2023-05-18T10:07:14.763Z,6.68
2023-05-18T10:09:43.960Z,6.78
2023-05-18T10:12:15.022Z,6.13
2023-05-18T10:14:44.065Z,8.55
2023-05-18T10:17:15.827Z,7.32
2023-05-18T10:19:44.400Z,6.60
2023-05-18T10:22:11.365Z,6.30
2023-05-18T10:24:40.098Z,6.93
2023-05-18T10:27:09.476Z,5.50
2023-05-18T10:29:39.476Z,7.50
2023-05-18T10:32:08.063Z,7.25
2023-05-18T10:34:35.385Z,7.55
2023-05-18T10:37:05.456Z,7.10
2023-05-18T10:39:34.193Z,5.97
2023-05-18T10:42:02.560Z,7.18
2023-05-18T10:44:29.604Z,6.28
2023-05-18T10:46:56.675Z,6.18
2023-05-18T10:49:26.126Z,6.90
2023-05-18T10:51:54.774Z,7.00
2023-05-18T10:54:23.473Z,6.97
2023-05-18T10:56:53.674Z,5.68
2023-05-18T10:59:23.364Z,7.78
2023-05-18T11:01:51.841Z,8.95
2023-05-18T11:04:29.849Z,7.45
2023-05-18T11:07:00.766Z,22.15
2023-05-18T11:09:28.809Z,14.02
2023-05-18T11:11:59.800Z,18.20
2023-05-18T11:14:28.155Z,12.68
2023-05-18T11:17:15.773Z,17.05
2023-05-18T11:20:09.184Z,15.15
2023-05-18T11:22:46.162Z,12.65
2023-05-18T11:25:28.585Z,10.60
2023-05-18T11:28:02.301Z,9.75
2023-05-18T11:30:38.237Z,9.82
2023-05-18T11:33:09.684Z,7.70
2023-05-18T11:36:01.428Z,11.15
2023-05-18T11:38:52.541Z,5.28
2023-05-18T11:41:27.063Z,7.63
2023-05-18T11:44:12.620Z,5.70
2023-05-18T11:46:56.819Z,7.13
2023-05-18T11:49:26.120Z,7.63
2023-05-18T11:52:05.670Z,8.95
2023-05-18T11:54:38.561Z,5.05
2023-05-18T11:57:05.576Z,10.68
2023-05-18T11:59:53.566Z,6.55
2023-05-18T12:02:28.090Z,5.93
2023-05-18T12:04:56.536Z,8.27
2023-05-18T12:07:25.367Z,6.78
2023-05-18T12:09:52.266Z,9.73
2023-05-18T12:12:24.000Z,4.93
2023-05-18T12:14:56.297Z,6.63
2023-05-18T12:17:24.582Z,7.00
2023-05-18T12:19:51.478Z,6.07
2023-05-18T12:22:18.338Z,6.55
2023-05-18T12:24:45.235Z,4.78
2023-05-18T12:27:13.180Z,6.82
2023-05-18T12:29:41.491Z,7.85
2023-05-18T12:32:10.671Z,4.97
2023-05-18T12:34:38.363Z,7.28
2023-05-18T12:37:06.802Z,5.55
2023-05-18T12:39:33.953Z,5.05
2023-05-18T12:42:16.232Z,6.00
2023-05-18T12:44:44.698Z,5.35
2023-05-18T12:47:12.436Z,6.18
2023-05-18T12:49:47.909Z,6.10
2023-05-18T12:52:16.678Z,4.85
2023-05-18T12:55:03.347Z,7.63
2023-05-18T12:57:31.207Z,5.07
2023-05-18T12:59:58.107Z,5.80
2023-05-18T13:02:31.963Z,5.30
2023-05-18T13:05:17.055Z,5.38
2023-05-18T13:07:45.442Z,4.80
2023-05-18T13:10:13.768Z,5.35
2023-05-18T13:12:51.131Z,4.75
2023-05-18T13:15:17.884Z,6.97
2023-05-18T13:17:53.631Z,6.55
2023-05-18T13:20:20.654Z,5.78
2023-05-18T13:22:49.885Z,5.97
2023-05-18T13:25:16.804Z,4.60
2023-05-18T13:27:45.962Z,4.60
2023-05-18T13:30:12.833Z,5.40
2023-05-18T13:32:39.540Z,7.20
2023-05-18T13:35:06.513Z,7.43
2023-05-18T13:37:33.246Z,7.72
2023-05-18T13:40:00.112Z,8.18
2023-05-18T13:42:27.233Z,7.28
2023-05-18T13:44:54.007Z,5.93
2023-05-18T13:47:20.820Z,6.45
2023-05-18T13:49:47.504Z,5.50
2023-05-18T13:52:14.265Z,8.32
2023-05-18T13:54:41.095Z,5.65
2023-05-18T13:57:08.604Z,5.93
2023-05-18T13:59:35.560Z,6.65
2023-05-18T14:02:02.339Z,5.40
2023-05-18T14:04:29.034Z,7.78
2023-05-18T14:06:56.027Z,9.95
2023-05-18T14:09:23.038Z,6.80
2023-05-18T14:11:51.118Z,6.65
2023-05-18T14:14:20.004Z,5.13
2023-05-18T14:16:46.862Z,7.07
2023-05-18T14:19:13.626Z,5.55
2023-05-18T14:21:40.648Z,6.68
2023-05-18T14:24:08.484Z,6.88
2023-05-18T14:26:36.706Z,6.45
2023-05-18T14:29:03.590Z,7.78
2023-05-18T14:31:30.373Z,5.63
2023-05-18T14:33:57.237Z,6.55
2023-05-18T14:36:23.956Z,6.50
2023-05-18T14:38:50.747Z,5.13
2023-05-18T14:41:17.487Z,8.00
2023-05-18T14:43:46.499Z,6.50
2023-05-18T14:46:13.687Z,5.53
2023-05-18T14:48:40.739Z,7.13
2023-05-18T14:51:07.515Z,6.47
2023-05-18T14:53:34.262Z,6.28
2023-05-18T14:56:04.274Z,6.05
2023-05-18T14:58:31.702Z,5.38
2023-05-18T15:00:58.680Z,5.70
2023-05-18T15:03:27.990Z,5.75
2023-05-18T15:05:55.134Z,6.03
2023-05-18T15:08:22.293Z,5.43
2023-05-18T15:10:50.103Z,6.13
2023-05-18T15:13:16.987Z,4.38
2023-05-18T15:15:44.110Z,5.28
2023-05-18T15:18:11.908Z,5.70
2023-05-18T15:20:44.000Z,6.95
2023-05-18T15:23:11.391Z,7.13
2023-05-18T15:25:38.257Z,5.03
2023-05-18T15:28:06.004Z,5.43
2023-05-18T15:30:33.191Z,6.10
2023-05-18T15:33:02.384Z,5.30
2023-05-18T15:35:29.430Z,6.35
2023-05-18T15:37:56.539Z,5.75
2023-05-18T15:40:23.494Z,4.63
2023-05-18T15:42:50.311Z,4.38
2023-05-18T15:45:17.204Z,5.47
2023-05-18T15:47:44.045Z,6.20
2023-05-18T15:50:12.379Z,5.80
2023-05-18T15:52:39.371Z,6.30
2023-05-18T15:55:06.710Z,7.13
2023-05-18T15:57:33.613Z,7.78
2023-05-18T16:00:00.694Z,6.70
2023-05-18T16:02:27.761Z,5.10
2023-05-18T16:04:54.637Z,4.90
2023-05-18T16:07:21.409Z,4.65
2023-05-18T16:09:48.448Z,5.47
2023-05-18T16:12:15.186Z,5.85
2023-05-18T16:14:42.162Z,6.15
2023-05-18T16:17:08.991Z,5.65
2023-05-18T16:19:35.922Z,6.03
2023-05-18T16:22:02.697Z,4.93
2023-05-18T16:24:29.435Z,5.03
2023-05-18T16:26:56.666Z,5.65
2023-05-18T16:29:23.410Z,5.43
2023-05-18T16:31:50.138Z,4.85
2023-05-18T16:34:16.904Z,4.93
2023-05-18T16:36:43.764Z,5.78
2023-05-18T16:39:10.952Z,5.25
2023-05-18T16:41:37.675Z,5.72
2023-05-18T16:44:04.563Z,3.33
2023-05-18T16:46:31.443Z,4.57
2023-05-18T16:48:58.269Z,6.97
2023-05-18T16:51:26.670Z,5.28
2023-05-18T16:53:54.339Z,4.78
2023-05-18T16:56:22.361Z,5.25
2023-05-18T16:58:53.503Z,4.82
2023-05-18T17:01:28.274Z,4.68
2023-05-18T17:03:56.157Z,4.82
2023-05-18T17:06:23.155Z,5.90
2023-05-18T17:08:57.291Z,4.40
2023-05-18T17:11:26.255Z,3.38
2023-05-18T17:13:53.049Z,3.88
2023-05-18T17:16:21.673Z,5.40
2023-05-18T17:18:48.845Z,5.45
2023-05-18T17:21:16.134Z,4.22
2023-05-18T17:23:43.068Z,3.58
2023-05-18T17:26:09.811Z,6.30
2023-05-18T17:28:36.681Z,4.40
2023-05-18T17:31:03.875Z,3.45
2023-05-18T17:33:30.893Z,4.93
2023-05-18T17:35:58.120Z,4.68
2023-05-18T17:38:24.895Z,3.58
2023-05-18T17:40:51.710Z,3.85
2023-05-18T17:43:18.414Z,6.50
2023-05-18T17:45:45.244Z,4.53
2023-05-18T17:48:11.986Z,3.80
2023-05-18T17:50:39.882Z,3.92
2023-05-18T17:53:06.730Z,4.03
2023-05-18T17:55:33.451Z,5.72
2023-05-18T17:58:02.423Z,3.40
2023-05-18T18:00:29.393Z,4.30
2023-05-18T18:02:56.423Z,4.20
2023-05-18T18:05:23.295Z,4.60
2023-05-18T18:07:50.236Z,4.78
2023-05-18T18:10:17.070Z,4.95
2023-05-18T18:12:44.098Z,4.13
2023-05-18T18:15:11.490Z,4.30
2023-05-18T18:17:38.208Z,3.45
2023-05-18T18:20:05.803Z,4.20
2023-05-18T18:22:34.351Z,2.90
2023-05-18T18:25:02.542Z,4.45
2023-05-18T18:27:29.273Z,3.10
2023-05-18T18:29:56.469Z,5.68
2023-05-18T18:32:23.280Z,4.18
2023-05-18T18:34:49.978Z,4.70
2023-05-18T18:37:17.129Z,5.30
2023-05-18T18:39:43.938Z,3.80
2023-05-18T18:42:11.680Z,3.13
2023-05-18T18:44:38.462Z,3.83
2023-05-18T18:47:05.737Z,3.45
2023-05-18T18:49:32.480Z,4.95
2023-05-18T18:51:59.310Z,3.65
2023-05-18T18:54:27.209Z,3.25
2023-05-18T18:56:54.254Z,3.75
2023-05-18T18:59:21.262Z,3.30
2023-05-18T19:01:48.081Z,4.38
2023-05-18T19:04:14.898Z,4.28
2023-05-18T19:06:42.799Z,3.10
2023-05-18T19:09:09.587Z,5.00
2023-05-18T19:11:36.829Z,4.10
2023-05-18T19:14:04.590Z,7.03
2023-05-18T19:16:33.007Z,7.10
2023-05-18T19:18:59.885Z,5.80
2023-05-18T19:21:26.716Z,4.55
2023-05-18T19:23:53.434Z,5.38
2023-05-18T19:26:20.218Z,7.30
2023-05-18T19:28:46.936Z,5.07
2023-05-18T19:31:13.737Z,6.28
2023-05-18T19:33:40.629Z,5.10
2023-05-18T19:36:07.530Z,5.47
2023-05-18T19:38:34.382Z,5.22
2023-05-18T19:41:01.273Z,4.32
2023-05-18T19:43:27.990Z,4.35
2023-05-18T19:45:54.741Z,4.63
2023-05-18T19:48:21.560Z,4.18
2023-05-18T19:50:48.261Z,5.22
2023-05-18T19:53:15.239Z,4.03
2023-05-18T19:55:42.205Z,5.75
2023-05-18T19:58:09.021Z,4.65
2023-05-18T20:00:37.989Z,4.82
2023-05-18T20:03:05.317Z,4.65
2023-05-18T20:05:32.158Z,5.85
2023-05-18T20:07:59.258Z,4.93
2023-05-18T20:10:26.012Z,5.18
2023-05-18T20:12:52.729Z,6.30
2023-05-18T20:15:19.432Z,4.13
2023-05-18T20:17:46.359Z,4.53
2023-05-18T20:20:13.084Z,4.10
2023-05-18T20:22:40.204Z,3.72
2023-05-18T20:25:07.582Z,4.22
2023-05-18T20:27:34.310Z,5.68
2023-05-18T20:30:01.062Z,3.78
2023-05-18T20:32:28.914Z,4.43
2023-05-18T20:34:55.755Z,5.15
2023-05-18T20:37:22.705Z,4.25
2023-05-18T20:39:51.022Z,3.85
2023-05-18T20:42:22.001Z,5.25
2023-05-18T20:44:51.688Z,6.72
2023-05-18T20:47:21.930Z,5.60
2023-05-18T20:49:49.058Z,4.72
2023-05-18T20:52:15.938Z,4.53
2023-05-18T20:54:43.612Z,4.68
2023-05-18T20:57:10.774Z,5.18
2023-05-18T20:59:37.503Z,3.97
2023-05-18T21:02:04.960Z,6.05
2023-05-18T21:04:31.867Z,4.32
2023-05-18T21:06:58.733Z,4.65
2023-05-18T21:09:25.646Z,3.92
2023-05-18T21:11:52.554Z,4.10
2023-05-18T21:14:19.371Z,4.43
2023-05-18T21:16:46.857Z,3.95
2023-05-18T21:19:13.838Z,4.57
2023-05-18T21:21:40.618Z,3.35
2023-05-18T21:24:07.569Z,4.95
2023-05-18T21:26:34.370Z,3.53
2023-05-18T21:29:01.191Z,4.90
2023-05-18T21:31:28.014Z,4.13
2023-05-18T21:33:54.798Z,2.92
2023-05-18T21:36:34.059Z,4.47
2023-05-18T21:39:02.124Z,3.88
2023-05-18T21:41:29.291Z,6.05
2023-05-18T21:43:57.746Z,4.38
2023-05-18T21:46:24.720Z,5.43
2023-05-18T21:48:51.642Z,4.57
2023-05-18T21:51:18.466Z,5.60
2023-05-18T21:53:45.149Z,3.65
2023-05-18T21:56:11.964Z,5.10
2023-05-18T21:58:38.755Z,3.78
2023-05-18T22:01:05.619Z,4.13
2023-05-18T22:03:32.445Z,3.45
2023-05-18T22:05:59.195Z,3.90
2023-05-18T22:08:26.106Z,3.60
2023-05-18T22:10:53.277Z,4.55
2023-05-18T22:13:20.018Z,3.47
2023-05-18T22:15:46.776Z,4.72
2023-05-18T22:18:13.594Z,4.60
2023-05-18T22:20:40.584Z,4.25
2023-05-18T22:23:09.177Z,4.32
2023-05-18T22:25:35.949Z,4.13
2023-05-18T22:28:02.674Z,3.22
2023-05-18T22:30:29.618Z,5.00
2023-05-18T22:32:57.678Z,5.00
2023-05-18T22:35:24.443Z,6.20
2023-05-18T22:37:51.208Z,3.85
2023-05-18T22:40:17.999Z,4.50
2023-05-18T22:42:44.761Z,5.68
2023-05-18T22:45:11.784Z,5.07
2023-05-18T22:47:39.583Z,5.63
2023-05-18T22:50:07.551Z,4.82
2023-05-18T22:52:35.113Z,5.18
2023-05-18T22:55:01.950Z,3.28
2023-05-18T22:57:28.637Z,4.50
2023-05-18T22:59:55.334Z,3.85
2023-05-18T23:02:22.095Z,4.78
2023-05-18T23:04:48.864Z,3.35
2023-05-18T23:07:16.231Z,3.67
2023-05-18T23:09:43.119Z,4.45
2023-05-18T23:12:10.315Z,4.22
2023-05-18T23:14:37.946Z,4.80
2023-05-18T23:17:05.133Z,4.60
2023-05-18T23:19:35.128Z,4.72
2023-05-18T23:22:02.297Z,3.90
2023-05-18T23:24:29.082Z,5.85
2023-05-18T23:26:58.136Z,5.78
2023-05-18T23:29:24.959Z,4.18
2023-05-18T23:31:52.457Z,6.32
2023-05-18T23:34:19.418Z,4.60
2023-05-18T23:36:48.456Z,5.63
2023-05-18T23:39:15.260Z,5.30
2023-05-18T23:41:42.715Z,4.00
2023-05-18T23:44:09.815Z,4.72
2023-05-18T23:46:36.921Z,4.93
2023-05-18T23:49:04.576Z,4.13
2023-05-18T23:51:36.239Z,4.15
2023-05-18T23:54:05.406Z,5.88
2023-05-18T23:56:33.367Z,5.18
2023-05-18T23:59:01.635Z,5.72
